Time;durP1;ratioP1;P1;durP2;ratioP2;P2;SDS_P1;SDS_P2;PMS_P1;PMS_P2;Temp;Humidity;BMP_temperature;BMP_pressure;BME280_temperature;BME280_humidity;BME280_pressure;Samples;Min_cycle;Max_cycle;Signal;HPM_P1;HPM_P2
2021/05/08 00:02:22;;;;;;;29.80;27.60;;;;;;;;;;5028854;28;20313;-90
2021/05/08 00:04:49;;;;;;;30.92;28.45;;;;;;;;;;5046348;28;20198;-91
2021/05/08 00:07:16;;;;;;;30.50;28.20;;;;;;;;;;5046204;28;20202;-91
2021/05/08 00:09:46;;;;;;;30.25;28.27;;;;;;;;;;5043276;28;20190;-90
2021/05/08 00:12:13;;;;;;;31.35;28.95;;;;;;;;;;5045254;28;20287;-91
2021/05/08 00:14:40;;;;;;;28.58;26.73;;;;;;;;;;5044257;28;20217;-91
2021/05/08 00:17:07;;;;;;;29.10;27.20;;;;;;;;;;5047075;28;20177;-90
2021/05/08 00:19:37;;;;;;;30.67;28.63;;;;;;;;;;5054130;28;20219;-91
2021/05/08 00:22:05;;;;;;;28.63;26.63;;;;;;;;;;5032568;28;20196;-91
2021/05/08 00:24:33;;;;;;;29.73;27.63;;;;;;;;;;5054248;28;20227;-92
2021/05/08 00:27:00;;;;;;;29.90;27.90;;;;;;;;;;5046262;28;20201;-91
2021/05/08 00:32:18;;;;;;;30.45;28.08;;;;;;;;;;4990386;28;20248;-91
2021/05/08 00:34:46;;;;;;;29.35;27.45;;;;;;;;;;4987423;28;20266;-91
2021/05/08 00:37:13;;;;;;;29.60;27.75;;;;;;;;;;4985995;28;20224;-91
2021/05/08 00:39:45;;;;;;;31.38;29.17;;;;;;;;;;4983005;28;20263;-91
2021/05/08 00:42:34;;;;;;;30.40;28.30;;;;;;;;;;4976819;28;20194;-90
2021/05/08 00:45:16;;;;;;;32.60;30.02;;;;;;;;;;4992034;28;20201;-91
2021/05/08 00:47:44;;;;;;;31.13;29.02;;;;;;;;;;4986853;28;20352;-91
2021/05/08 00:50:13;;;;;;;30.70;28.17;;;;;;;;;;4983698;28;20659;-91
2021/05/08 00:52:41;;;;;;;31.70;29.40;;;;;;;;;;4983345;28;20248;-91
2021/05/08 00:55:10;;;;;;;30.90;28.58;;;;;;;;;;4954026;28;20629;-90
2021/05/08 00:57:38;;;;;;;31.10;29.00;;;;;;;;;;4968387;28;20215;-91
2021/05/08 01:00:17;;;;;;;31.45;29.10;;;;;;;;;;4992072;28;20214;-91
2021/05/08 01:02:47;;;;;;;31.25;29.00;;;;;;;;;;4989201;28;20643;-91
2021/05/08 01:05:19;;;;;;;31.05;28.95;;;;;;;;;;4955833;28;20223;-91
2021/05/08 01:07:57;;;;;;;30.38;28.17;;;;;;;;;;4991820;28;20191;-91
2021/05/08 01:10:26;;;;;;;32.33;29.98;;;;;;;;;;4988058;28;20217;-91
2021/05/08 01:12:53;;;;;;;32.42;29.80;;;;;;;;;;4985480;28;20289;-91
2021/05/08 01:15:21;;;;;;;31.08;28.77;;;;;;;;;;4988353;28;20209;-92
2021/05/08 01:17:49;;;;;;;32.63;30.25;;;;;;;;;;4991209;28;20201;-91
2021/05/08 01:20:24;;;;;;;33.03;30.83;;;;;;;;;;4993741;28;20226;-91
2021/05/08 01:22:53;;;;;;;33.72;31.00;;;;;;;;;;5004496;28;20214;-91
2021/05/08 01:25:25;;;;;;;33.00;30.50;;;;;;;;;;5007399;28;20208;-91
2021/05/08 01:27:59;;;;;;;33.45;30.85;;;;;;;;;;5005743;28;20203;-91
2021/05/08 01:30:27;;;;;;;34.05;31.55;;;;;;;;;;5006519;28;20713;-91
2021/05/08 01:32:54;;;;;;;35.78;32.83;;;;;;;;;;5006094;28;20278;-91
2021/05/08 01:35:22;;;;;;;35.25;32.58;;;;;;;;;;5008182;28;20193;-91
2021/05/08 01:37:48;;;;;;;34.80;31.80;;;;;;;;;;5007515;28;20187;-91
2021/05/08 01:40:20;;;;;;;34.53;31.80;;;;;;;;;;5005825;28;20188;-91
2021/05/08 01:42:52;;;;;;;34.50;31.80;;;;;;;;;;5007298;28;20207;-91
2021/05/08 01:45:35;;;;;;;34.70;32.30;;;;;;;;;;5009426;28;20199;-91
2021/05/08 01:48:04;;;;;;;34.22;31.73;;;;;;;;;;5009330;28;20195;-91
2021/05/08 01:50:33;;;;;;;34.80;32.20;;;;;;;;;;5007746;28;20211;-91
2021/05/08 01:53:01;;;;;;;33.13;30.63;;;;;;;;;;5016543;28;20249;-91
2021/05/08 01:55:29;;;;;;;33.35;30.85;;;;;;;;;;5009502;28;20208;-91
2021/05/08 01:58:00;;;;;;;35.55;32.95;;;;;;;;;;5026318;28;20182;-91
2021/05/08 02:00:32;;;;;;;35.83;33.03;;;;;;;;;;5026031;28;20210;-91
2021/05/08 02:02:59;;;;;;;36.13;33.42;;;;;;;;;;5024688;28;20229;-92
2021/05/08 02:05:28;;;;;;;35.08;32.47;;;;;;;;;;5027502;28;20187;-91
2021/05/08 02:07:55;;;;;;;38.28;35.15;;;;;;;;;;5027559;28;20198;-91
2021/05/08 02:10:31;;;;;;;35.22;32.10;;;;;;;;;;5026620;28;20250;-91
2021/05/08 02:12:59;;;;;;;35.08;32.28;;;;;;;;;;5029352;28;20229;-91
2021/05/08 02:15:26;;;;;;;34.95;32.55;;;;;;;;;;5025468;28;20194;-91
2021/05/08 02:17:54;;;;;;;35.63;32.83;;;;;;;;;;5027830;28;20194;-91
2021/05/08 02:20:26;;;;;;;38.80;36.00;;;;;;;;;;5034603;28;20183;-91
2021/05/08 02:22:55;;;;;;;38.20;35.30;;;;;;;;;;5023986;28;20687;-91
2021/05/08 02:25:23;;;;;;;35.92;33.33;;;;;;;;;;5023223;28;20191;-91
2021/05/08 02:27:54;;;;;;;36.45;33.85;;;;;;;;;;5025331;28;20195;-91
2021/05/08 02:30:23;;;;;;;36.38;33.67;;;;;;;;;;5024736;28;20290;-91
2021/05/08 02:32:50;;;;;;;37.25;34.45;;;;;;;;;;5024173;28;20224;-90
2021/05/08 02:35:19;;;;;;;37.33;34.53;;;;;;;;;;5025123;28;20286;-91
2021/05/08 02:37:47;;;;;;;37.33;34.47;;;;;;;;;;5025364;28;20195;-90
2021/05/08 02:40:15;;;;;;;36.85;33.95;;;;;;;;;;5025655;28;20195;-90
2021/05/08 02:42:43;;;;;;;38.45;35.00;;;;;;;;;;5025645;28;20221;-90
2021/05/08 02:45:11;;;;;;;37.85;35.05;;;;;;;;;;5025722;28;20201;-88
2021/05/08 02:47:39;;;;;;;35.83;33.22;;;;;;;;;;5025789;28;20214;-89
2021/05/08 02:50:07;;;;;;;36.17;33.47;;;;;;;;;;5008717;28;20195;-89
2021/05/08 02:52:36;;;;;;;36.38;33.63;;;;;;;;;;5026772;28;20245;-89
2021/05/08 02:55:04;;;;;;;36.38;33.60;;;;;;;;;;5031789;28;20195;-88
2021/05/08 02:57:31;;;;;;;35.67;32.95;;;;;;;;;;5027251;28;20206;-89
2021/05/08 02:59:59;;;;;;;39.08;36.08;;;;;;;;;;5025926;28;20192;-88
2021/05/08 03:02:28;;;;;;;38.58;35.58;;;;;;;;;;5026353;28;20190;-88
2021/05/08 03:04:57;;;;;;;37.10;34.25;;;;;;;;;;5027183;28;20194;-88
2021/05/08 03:07:34;;;;;;;39.53;36.13;;;;;;;;;;5029399;28;20206;-88
2021/05/08 03:10:02;;;;;;;39.50;36.30;;;;;;;;;;5026553;28;20281;-89
2021/05/08 03:12:29;;;;;;;39.97;36.67;;;;;;;;;;5025271;28;20223;-89
2021/05/08 03:14:55;;;;;;;40.22;36.95;;;;;;;;;;5020627;28;20632;-88
2021/05/08 03:17:22;;;;;;;38.22;35.20;;;;;;;;;;5020678;28;20190;-88
2021/05/08 03:19:49;;;;;;;39.25;36.10;;;;;;;;;;5019972;28;20201;-88
2021/05/08 03:22:17;;;;;;;39.60;36.38;;;;;;;;;;5021531;28;20190;-88
2021/05/08 03:24:44;;;;;;;40.65;37.35;;;;;;;;;;5024918;28;20191;-89
2021/05/08 03:27:11;;;;;;;42.28;38.50;;;;;;;;;;5023513;28;20332;-89
2021/05/08 03:29:38;;;;;;;40.03;36.92;;;;;;;;;;5020636;28;20187;-88
2021/05/08 03:32:05;;;;;;;40.72;37.63;;;;;;;;;;5020293;28;20218;-87
2021/05/08 03:34:35;;;;;;;39.50;36.40;;;;;;;;;;5018986;28;20541;-88
2021/05/08 03:37:02;;;;;;;40.50;37.17;;;;;;;;;;5019450;28;20217;-88
2021/05/08 03:39:30;;;;;;;41.38;37.83;;;;;;;;;;5020568;28;20660;-88
2021/05/08 03:41:57;;;;;;;39.72;36.70;;;;;;;;;;5019612;28;20198;-88
2021/05/08 03:44:24;;;;;;;40.53;37.20;;;;;;;;;;5021662;28;20596;-88
2021/05/08 03:46:51;;;;;;;41.88;38.35;;;;;;;;;;5020964;28;20197;-88
2021/05/08 03:49:21;;;;;;;43.33;39.53;;;;;;;;;;5019842;28;20194;-87
2021/05/08 03:51:48;;;;;;;42.50;38.88;;;;;;;;;;5020487;28;20237;-88
2021/05/08 03:54:15;;;;;;;41.33;37.65;;;;;;;;;;5021153;28;20198;-89
2021/05/08 03:56:43;;;;;;;41.80;38.10;;;;;;;;;;5019885;28;20206;-88
2021/05/08 03:59:10;;;;;;;41.17;37.58;;;;;;;;;;5019903;28;20205;-87
2021/05/08 04:01:39;;;;;;;41.47;37.78;;;;;;;;;;5021748;28;20200;-88
2021/05/08 04:04:06;;;;;;;42.05;38.35;;;;;;;;;;5018333;28;20194;-88
2021/05/08 04:06:33;;;;;;;42.13;38.42;;;;;;;;;;5020470;28;20210;-88
2021/05/08 04:09:00;;;;;;;42.70;39.10;;;;;;;;;;5019674;28;20198;-88
2021/05/08 04:11:27;;;;;;;40.88;37.28;;;;;;;;;;5019870;28;20190;-86
2021/05/08 04:13:55;;;;;;;41.80;38.00;;;;;;;;;;5021435;28;20198;-87
2021/05/08 04:16:22;;;;;;;41.45;37.90;;;;;;;;;;5020154;28;20195;-88
2021/05/08 04:18:49;;;;;;;40.63;37.08;;;;;;;;;;5019352;28;20728;-88
2021/05/08 04:21:15;;;;;;;40.88;37.40;;;;;;;;;;5021016;28;20166;-88
2021/05/08 04:23:42;;;;;;;39.75;36.50;;;;;;;;;;5019880;28;20211;-88
2021/05/08 04:26:09;;;;;;;39.35;35.97;;;;;;;;;;5018550;28;20191;-88
2021/05/08 04:28:36;;;;;;;41.10;37.28;;;;;;;;;;5019733;28;20191;-87
2021/05/08 04:31:04;;;;;;;38.00;34.72;;;;;;;;;;5018450;28;20249;-88
2021/05/08 04:33:31;;;;;;;38.75;35.30;;;;;;;;;;5018879;28;20213;-89
2021/05/08 04:35:58;;;;;;;40.15;36.78;;;;;;;;;;5020280;28;20212;-88
2021/05/08 04:38:25;;;;;;;40.45;36.83;;;;;;;;;;5016881;28;20205;-89
2021/05/08 04:40:53;;;;;;;38.47;35.42;;;;;;;;;;4982963;28;20657;-88
2021/05/08 04:43:20;;;;;;;38.65;35.45;;;;;;;;;;5022315;28;20224;-88
2021/05/08 04:45:47;;;;;;;39.80;36.42;;;;;;;;;;4999923;28;20719;-88
2021/05/08 04:48:22;;;;;;;37.83;34.80;;;;;;;;;;5018900;28;20218;-88
2021/05/08 04:50:49;;;;;;;37.88;34.63;;;;;;;;;;5018772;28;20201;-87
2021/05/08 04:53:16;;;;;;;38.67;35.58;;;;;;;;;;5018741;28;20233;-87
2021/05/08 04:55:43;;;;;;;40.08;36.58;;;;;;;;;;5015819;28;20190;-88
2021/05/08 04:58:10;;;;;;;38.78;35.47;;;;;;;;;;5015438;28;20194;-88
2021/05/08 05:00:37;;;;;;;40.42;36.95;;;;;;;;;;5015790;28;20244;-88
2021/05/08 05:03:03;;;;;;;38.60;35.30;;;;;;;;;;5015329;28;20291;-89
2021/05/08 05:05:31;;;;;;;38.30;34.92;;;;;;;;;;5016021;28;20195;-86
2021/05/08 05:07:58;;;;;;;37.20;34.05;;;;;;;;;;4998829;28;20228;-86
2021/05/08 05:10:26;;;;;;;39.40;35.97;;;;;;;;;;5015871;28;20201;-87
2021/05/08 05:12:53;;;;;;;39.38;36.20;;;;;;;;;;5015450;28;20724;-87
2021/05/08 05:15:21;;;;;;;38.65;35.25;;;;;;;;;;5017191;28;20197;-89
2021/05/08 05:17:48;;;;;;;37.20;34.33;;;;;;;;;;5017866;28;20221;-86
2021/05/08 05:20:15;;;;;;;36.15;33.28;;;;;;;;;;5017984;28;20607;-87
2021/05/08 05:22:42;;;;;;;37.00;33.90;;;;;;;;;;5016134;28;20201;-85
2021/05/08 05:25:10;;;;;;;37.70;34.35;;;;;;;;;;5015677;28;20191;-86
2021/05/08 05:27:37;;;;;;;36.10;33.20;;;;;;;;;;5016955;28;20191;-86
2021/05/08 05:30:04;;;;;;;36.83;33.75;;;;;;;;;;5015487;28;20236;-88
2021/05/08 05:32:31;;;;;;;36.95;34.15;;;;;;;;;;5014950;28;20229;-87
2021/05/08 05:34:58;;;;;;;35.25;32.47;;;;;;;;;;5015140;28;20230;-87
2021/05/08 05:37:25;;;;;;;32.35;29.85;;;;;;;;;;5014817;28;20202;-88
2021/05/08 05:39:53;;;;;;;35.78;32.85;;;;;;;;;;5014940;28;20271;-88
2021/05/08 05:42:20;;;;;;;33.85;31.05;;;;;;;;;;5015302;28;20191;-87
2021/05/08 05:44:47;;;;;;;34.58;31.98;;;;;;;;;;5014584;28;20192;-88
2021/05/08 05:47:23;;;;;;;34.47;31.67;;;;;;;;;;4997475;28;20258;-87
2021/05/08 05:49:50;;;;;;;35.20;32.60;;;;;;;;;;5014375;28;20187;-87
2021/05/08 05:52:17;;;;;;;35.58;32.60;;;;;;;;;;5014185;28;20673;-81
2021/05/08 05:54:45;;;;;;;33.83;31.13;;;;;;;;;;5017401;28;20249;-87
2021/05/08 05:57:13;;;;;;;31.70;29.30;;;;;;;;;;5014964;28;20286;-87
2021/05/08 05:59:40;;;;;;;33.70;31.00;;;;;;;;;;5018543;28;20219;-88
2021/05/08 06:02:07;;;;;;;33.22;30.70;;;;;;;;;;5018829;28;20202;-88
2021/05/08 06:04:34;;;;;;;33.78;31.08;;;;;;;;;;5018927;28;20196;-88
2021/05/08 06:07:00;;;;;;;35.78;32.65;;;;;;;;;;5018555;28;20196;-88
2021/05/08 06:09:27;;;;;;;35.05;32.20;;;;;;;;;;5018812;28;20191;-89
2021/05/08 06:11:55;;;;;;;33.83;31.10;;;;;;;;;;5018272;28;20196;-88
2021/05/08 06:14:23;;;;;;;33.50;31.00;;;;;;;;;;5017972;28;20210;-88
2021/05/08 06:16:50;;;;;;;34.13;31.70;;;;;;;;;;5018064;28;20190;-89
2021/05/08 06:19:19;;;;;;;32.95;30.55;;;;;;;;;;5018466;28;20199;-89
2021/05/08 06:21:45;;;;;;;32.92;30.30;;;;;;;;;;5020094;28;20196;-89
2021/05/08 06:24:12;;;;;;;32.83;30.27;;;;;;;;;;5017927;28;20196;-91
2021/05/08 06:26:39;;;;;;;33.63;31.13;;;;;;;;;;5017978;28;20647;-88
2021/05/08 06:29:06;;;;;;;32.80;30.40;;;;;;;;;;5018149;28;20205;-89
2021/05/08 06:31:34;;;;;;;33.90;31.13;;;;;;;;;;5017759;28;20216;-88
2021/05/08 06:34:01;;;;;;;31.27;29.17;;;;;;;;;;5017814;28;20232;-90
2021/05/08 06:36:28;;;;;;;33.50;30.88;;;;;;;;;;5018060;28;20443;-89
2021/05/08 06:38:55;;;;;;;35.35;32.60;;;;;;;;;;5022058;28;20200;-89
2021/05/08 06:41:22;;;;;;;33.13;30.83;;;;;;;;;;5017563;28;20197;-89
2021/05/08 06:43:49;;;;;;;31.87;29.50;;;;;;;;;;5000572;28;20530;-89
2021/05/08 06:46:16;;;;;;;33.20;30.73;;;;;;;;;;4999830;28;20449;-89
2021/05/08 06:48:44;;;;;;;30.43;28.03;;;;;;;;;;5017213;28;20455;-88
2021/05/08 06:51:11;;;;;;;32.70;30.00;;;;;;;;;;5017726;28;20444;-91
2021/05/08 06:53:38;;;;;;;31.57;29.23;;;;;;;;;;4999586;28;20476;-89
2021/05/08 06:56:06;;;;;;;28.17;26.17;;;;;;;;;;5017355;28;20422;-90
2021/05/08 06:58:33;;;;;;;31.63;29.27;;;;;;;;;;5000596;28;20204;-90
2021/05/08 07:01:00;;;;;;;31.80;29.35;;;;;;;;;;5017707;28;20421;-88
2021/05/08 07:03:27;;;;;;;33.23;30.63;;;;;;;;;;5018633;28;20248;-91
2021/05/08 07:05:54;;;;;;;32.67;30.20;;;;;;;;;;5017064;28;20419;-91
2021/05/08 07:08:21;;;;;;;32.53;30.20;;;;;;;;;;4999690;28;20458;-92
2021/05/08 07:10:49;;;;;;;33.47;31.00;;;;;;;;;;5016046;28;20219;-92
2021/05/08 07:13:16;;;;;;;36.47;33.67;;;;;;;;;;5017133;28;20512;-92
2021/05/08 07:15:43;;;;;;;32.33;29.90;;;;;;;;;;5016813;28;20944;-86
2021/05/08 07:18:10;;;;;;;34.40;31.70;;;;;;;;;;5016816;28;20477;-86
2021/05/08 07:20:38;;;;;;;33.57;30.87;;;;;;;;;;5017769;28;20459;-86
2021/05/08 07:23:07;;;;;;;32.53;29.93;;;;;;;;;;5016653;28;20805;-87
2021/05/08 07:25:35;;;;;;;34.97;32.27;;;;;;;;;;5020093;28;20809;-86
2021/05/08 07:28:09;;;;;;;34.47;31.75;;;;;;;;;;5018045;28;20467;-86
2021/05/08 07:30:36;;;;;;;35.55;32.75;;;;;;;;;;5018687;28;20224;-86
2021/05/08 07:33:03;;;;;;;30.88;28.65;;;;;;;;;;5017996;28;20224;-87
2021/05/08 07:35:30;;;;;;;32.83;30.30;;;;;;;;;;5000485;28;20206;-87
2021/05/08 07:37:57;;;;;;;31.70;29.20;;;;;;;;;;5018588;28;20443;-86
2021/05/08 07:40:25;;;;;;;31.63;29.33;;;;;;;;;;5017420;28;20434;-86
2021/05/08 07:42:52;;;;;;;29.97;27.77;;;;;;;;;;5018327;28;20523;-86
2021/05/08 07:45:19;;;;;;;29.33;27.00;;;;;;;;;;5017557;28;20417;-87
2021/05/08 07:47:46;;;;;;;30.77;28.50;;;;;;;;;;5000169;28;20498;-88
2021/05/08 07:50:15;;;;;;;31.07;28.77;;;;;;;;;;5017678;28;20510;-87
2021/05/08 07:52:42;;;;;;;30.43;28.13;;;;;;;;;;4994722;28;20855;-87
2021/05/08 07:55:09;;;;;;;30.85;28.55;;;;;;;;;;4979672;28;20424;-88
2021/05/08 07:57:37;;;;;;;30.77;28.47;;;;;;;;;;4982716;28;20198;-86
2021/05/08 08:00:06;;;;;;;29.70;27.50;;;;;;;;;;4982583;28;20416;-87
2021/05/08 08:02:33;;;;;;;30.23;27.80;;;;;;;;;;4981775;28;20428;-87
2021/05/08 08:05:01;;;;;;;31.70;29.20;;;;;;;;;;4982101;28;20585;-87
2021/05/08 08:07:28;;;;;;;30.30;28.00;;;;;;;;;;4985387;28;20456;-85
2021/05/08 08:09:54;;;;;;;41.33;32.77;;;;;;;;;;4983726;28;20454;-84
2021/05/08 08:12:22;;;;;;;29.93;27.63;;;;;;;;;;4979044;28;21007;-85
2021/05/08 08:14:49;;;;;;;33.60;31.00;;;;;;;;;;4987746;28;20403;-85
2021/05/08 08:17:17;;;;;;;30.13;27.83;;;;;;;;;;4980668;28;20416;-87
2021/05/08 08:19:47;;;;;;;30.63;28.33;;;;;;;;;;4979979;28;20420;-88
2021/05/08 08:22:14;;;;;;;31.93;29.30;;;;;;;;;;4979817;28;20448;-88
2021/05/08 08:24:42;;;;;;;30.93;28.57;;;;;;;;;;4979941;28;20453;-86
2021/05/08 08:27:09;;;;;;;30.93;28.53;;;;;;;;;;4978850;28;20492;-87
2021/05/08 08:29:36;;;;;;;32.17;29.67;;;;;;;;;;4980006;28;20478;-87
2021/05/08 08:32:05;;;;;;;32.40;30.10;;;;;;;;;;4982601;28;20518;-87
2021/05/08 08:34:32;;;;;;;32.17;29.50;;;;;;;;;;4982007;28;20443;-87
2021/05/08 08:36:59;;;;;;;31.80;29.50;;;;;;;;;;4978972;28;20494;-86
2021/05/08 08:39:26;;;;;;;32.53;29.83;;;;;;;;;;4976512;28;20442;-84
2021/05/08 08:41:58;;;;;;;31.00;28.60;;;;;;;;;;4978855;28;20442;-86
2021/05/08 08:44:25;;;;;;;33.20;30.70;;;;;;;;;;5000206;28;20945;-86
2021/05/08 08:46:52;;;;;;;31.60;29.07;;;;;;;;;;4982732;28;20453;-86
2021/05/08 08:49:20;;;;;;;30.20;27.90;;;;;;;;;;4977358;28;20416;-86
2021/05/08 08:51:47;;;;;;;33.20;30.57;;;;;;;;;;4979769;28;20419;-86
2021/05/08 08:54:14;;;;;;;31.40;29.00;;;;;;;;;;5016825;28;20462;-87
2021/05/08 08:56:43;;;;;;;31.10;28.80;;;;;;;;;;5016108;28;20922;-87
2021/05/08 08:59:15;;;;;;;31.90;29.60;;;;;;;;;;5015997;28;20441;-88
2021/05/08 09:01:43;;;;;;;32.23;29.53;;;;;;;;;;5015323;28;20422;-87
2021/05/08 09:04:11;;;;;;;31.77;29.10;;;;;;;;;;5015897;28;20444;-86
2021/05/08 09:06:40;;;;;;;31.67;29.23;;;;;;;;;;4998754;28;20448;-91
2021/05/08 09:09:09;;;;;;;30.27;28.00;;;;;;;;;;5016890;28;20419;-86
2021/05/08 09:11:46;;;;;;;29.30;27.10;;;;;;;;;;5016218;28;20418;-87
2021/05/08 09:14:16;;;;;;;30.10;27.80;;;;;;;;;;5015976;28;20468;-87
2021/05/08 09:16:58;;;;;;;64.50;33.63;;;;;;;;;;5015974;28;20851;-87
2021/05/08 09:19:25;;;;;;;31.37;28.93;;;;;;;;;;5015169;28;20419;-86
2021/05/08 09:21:53;;;;;;;31.57;29.07;;;;;;;;;;5001910;28;20454;-87
2021/05/08 09:24:20;;;;;;;30.17;27.90;;;;;;;;;;5021610;28;20418;-85
2021/05/08 09:26:50;;;;;;;31.43;29.13;;;;;;;;;;5021489;28;20408;-85
2021/05/08 09:29:18;;;;;;;29.27;27.17;;;;;;;;;;5019669;28;20452;-86
2021/05/08 09:31:54;;;;;;;29.10;27.03;;;;;;;;;;5015024;28;20445;-90
2021/05/08 09:34:21;;;;;;;29.47;27.27;;;;;;;;;;5014692;28;20470;-86
2021/05/08 09:37:00;;;;;;;29.90;27.77;;;;;;;;;;5015727;28;20399;-91
2021/05/08 09:39:29;;;;;;;30.07;27.87;;;;;;;;;;5014801;28;20425;-86
2021/05/08 09:41:56;;;;;;;29.40;27.30;;;;;;;;;;5014297;28;20921;-87
2021/05/08 09:44:22;;;;;;;28.37;26.00;;;;;;;;;;5015401;28;20483;-85
2021/05/08 09:46:51;;;;;;;28.07;26.27;;;;;;;;;;4997602;28;20430;-87
2021/05/08 09:49:20;;;;;;;28.60;26.70;;;;;;;;;;5016030;28;20437;-87
2021/05/08 09:51:47;;;;;;;28.50;26.50;;;;;;;;;;5015756;28;20440;-86
2021/05/08 09:54:15;;;;;;;29.23;27.17;;;;;;;;;;5016218;28;20470;-86
2021/05/08 09:56:43;;;;;;;29.13;26.70;;;;;;;;;;5016658;28;20451;-86
2021/05/08 09:59:35;;;;;;;27.73;25.93;;;;;;;;;;5018943;28;20419;-89
2021/05/08 10:02:12;;;;;;;27.60;25.60;;;;;;;;;;5002638;28;20432;-89
2021/05/08 10:04:42;;;;;;;25.90;24.20;;;;;;;;;;5017365;28;20449;-90
2021/05/08 10:07:11;;;;;;;28.50;26.57;;;;;;;;;;5018392;28;20898;-88
2021/05/08 10:09:38;;;;;;;26.47;24.87;;;;;;;;;;5018636;28;20445;-89
2021/05/08 10:12:07;;;;;;;27.00;25.30;;;;;;;;;;5016180;28;20546;-87
2021/05/08 10:14:35;;;;;;;27.00;25.03;;;;;;;;;;5001482;28;20450;-89
2021/05/08 10:17:03;;;;;;;26.30;24.70;;;;;;;;;;4999925;28;20413;-88
2021/05/08 10:19:31;;;;;;;26.90;24.97;;;;;;;;;;5015128;28;20460;-87
2021/05/08 10:21:59;;;;;;;28.00;26.10;;;;;;;;;;5015353;28;21009;-87
2021/05/08 10:24:26;;;;;;;27.07;25.40;;;;;;;;;;5015926;28;20428;-88
2021/05/08 10:26:57;;;;;;;27.70;25.90;;;;;;;;;;5016248;28;20415;-90
2021/05/08 10:29:25;;;;;;;26.33;24.63;;;;;;;;;;5018011;28;20511;-90
2021/05/08 10:31:53;;;;;;;25.30;23.80;;;;;;;;;;5015845;28;20445;-88
2021/05/08 10:34:31;;;;;;;24.83;23.33;;;;;;;;;;5021987;28;20484;-89
2021/05/08 10:37:06;;;;;;;24.20;22.80;;;;;;;;;;5023768;28;20800;-90
2021/05/08 10:39:48;;;;;;;24.80;23.03;;;;;;;;;;4999599;28;20777;-83
2021/05/08 10:42:30;;;;;;;23.57;22.17;;;;;;;;;;5015974;28;20430;-89
2021/05/08 10:44:58;;;;;;;24.67;23.23;;;;;;;;;;5017197;28;20422;-90
2021/05/08 10:47:25;;;;;;;25.43;23.83;;;;;;;;;;5004303;28;20416;-90
2021/05/08 10:50:10;;;;;;;23.83;22.30;;;;;;;;;;5023779;28;20473;-89
2021/05/08 10:52:56;;;;;;;24.17;22.20;;;;;;;;;;5022251;28;20490;-83
2021/05/08 10:55:23;;;;;;;23.70;22.20;;;;;;;;;;5009129;28;20510;-89
2021/05/08 10:58:05;;;;;;;23.17;21.77;;;;;;;;;;5008279;28;20418;-89
2021/05/08 11:00:44;;;;;;;23.70;22.30;;;;;;;;;;5020557;28;20494;-89
2021/05/08 11:03:14;;;;;;;25.30;23.70;;;;;;;;;;5005520;28;20426;-88
2021/05/08 11:05:51;;;;;;;24.37;22.83;;;;;;;;;;5019702;28;20423;-87
2021/05/08 11:08:36;;;;;;;23.67;22.03;;;;;;;;;;5018260;28;20439;-88
2021/05/08 11:11:03;;;;;;;24.43;23.13;;;;;;;;;;5018029;28;20411;-88
2021/05/08 11:13:45;;;;;;;22.90;21.50;;;;;;;;;;5017570;28;20471;-88
2021/05/08 11:16:14;;;;;;;22.70;21.30;;;;;;;;;;4999943;28;20963;-94
2021/05/08 11:18:41;;;;;;;23.23;21.77;;;;;;;;;;5019379;28;20478;-93
2021/05/08 11:21:38;;;;;;;23.57;22.17;;;;;;;;;;5018672;28;20741;-90
2021/05/08 11:24:06;;;;;;;23.37;21.77;;;;;;;;;;4958771;29;20429;-89
2021/05/08 11:26:37;;;;;;;23.80;22.40;;;;;;;;;;4961826;29;20455;-89
2021/05/08 11:29:05;;;;;;;23.03;21.63;;;;;;;;;;4963265;29;20456;-90
2021/05/08 11:31:33;;;;;;;23.43;21.93;;;;;;;;;;4958268;28;20458;-88
2021/05/08 11:34:13;;;;;;;24.73;23.13;;;;;;;;;;4956914;29;20458;-88
2021/05/08 11:36:47;;;;;;;23.40;21.37;;;;;;;;;;4957814;29;20449;-88
2021/05/08 11:39:15;;;;;;;21.50;20.20;;;;;;;;;;4963563;29;20452;-89
2021/05/08 11:41:42;;;;;;;22.10;20.90;;;;;;;;;;4963948;29;20406;-89
2021/05/08 11:44:09;;;;;;;23.57;22.00;;;;;;;;;;4963004;29;20403;-90
2021/05/08 11:46:37;;;;;;;22.83;21.43;;;;;;;;;;4963682;29;20419;-89
2021/05/08 11:49:04;;;;;;;22.70;21.20;;;;;;;;;;4964103;29;20418;-90
2021/05/08 11:51:31;;;;;;;23.10;21.50;;;;;;;;;;4964214;29;20450;-90
2021/05/08 11:54:10;;;;;;;22.10;20.70;;;;;;;;;;4964005;29;20470;-90
2021/05/08 11:56:37;;;;;;;22.97;21.57;;;;;;;;;;4947901;29;20430;-90
2021/05/08 11:59:06;;;;;;;23.10;21.10;;;;;;;;;;5017692;28;20453;-91
2021/05/08 12:01:33;;;;;;;22.03;20.83;;;;;;;;;;5024534;28;20426;-90
2021/05/08 12:04:01;;;;;;;22.27;20.97;;;;;;;;;;5025203;28;20520;-90
2021/05/08 12:06:28;;;;;;;22.40;21.13;;;;;;;;;;5025054;28;20457;-90
2021/05/08 12:08:55;;;;;;;23.07;21.63;;;;;;;;;;5023744;28;20474;-88
2021/05/08 12:11:23;;;;;;;23.47;21.77;;;;;;;;;;5018926;28;20439;-90
2021/05/08 12:13:50;;;;;;;24.00;22.50;;;;;;;;;;5006333;28;20466;-89
2021/05/08 12:16:17;;;;;;;22.83;21.47;;;;;;;;;;5024956;28;20466;-82
2021/05/08 12:18:44;;;;;;;24.13;22.40;;;;;;;;;;5024718;28;20433;-87
2021/05/08 12:21:14;;;;;;;23.50;22.10;;;;;;;;;;5024146;28;20440;-89
2021/05/08 12:23:41;;;;;;;23.07;21.67;;;;;;;;;;5024677;28;20416;-89
2021/05/08 12:26:09;;;;;;;22.30;21.10;;;;;;;;;;5023702;28;20419;-89
2021/05/08 12:28:36;;;;;;;23.30;21.73;;;;;;;;;;5023437;28;20469;-90
2021/05/08 12:31:23;;;;;;;23.40;22.10;;;;;;;;;;5024108;28;20844;-88
2021/05/08 12:33:50;;;;;;;23.90;22.50;;;;;;;;;;5016751;28;20975;-89
2021/05/08 12:36:19;;;;;;;23.33;21.73;;;;;;;;;;5017887;28;20446;-89
2021/05/08 12:38:47;;;;;;;23.83;22.53;;;;;;;;;;5017751;28;20454;-89
2021/05/08 12:41:39;;;;;;;24.00;22.60;;;;;;;;;;5015763;28;20455;-89
2021/05/08 12:44:10;;;;;;;25.30;24.00;;;;;;;;;;5001578;28;20639;-89
2021/05/08 12:46:53;;;;;;;24.23;22.93;;;;;;;;;;5000619;28;20839;-89
2021/05/08 12:49:21;;;;;;;28.80;26.93;;;;;;;;;;5015961;28;20419;-83
2021/05/08 12:51:49;;;;;;;25.03;23.43;;;;;;;;;;4999762;28;20773;-87
2021/05/08 12:54:22;;;;;;;23.97;22.40;;;;;;;;;;5018021;28;20551;-88
2021/05/08 12:56:50;;;;;;;24.23;22.93;;;;;;;;;;4999404;28;20913;-88
2021/05/08 12:59:27;;;;;;;23.53;22.23;;;;;;;;;;5016386;28;20442;-88
2021/05/08 13:01:55;;;;;;;23.67;22.47;;;;;;;;;;5016074;28;20499;-87
2021/05/08 13:04:37;;;;;;;23.90;22.60;;;;;;;;;;5016002;28;20435;-87
2021/05/08 13:07:20;;;;;;;24.10;22.70;;;;;;;;;;5016657;28;20782;-89
2021/05/08 13:09:48;;;;;;;24.20;22.80;;;;;;;;;;5000356;28;20870;-87
2021/05/08 13:12:18;;;;;;;23.83;22.43;;;;;;;;;;4998608;28;20454;-88
2021/05/08 13:14:47;;;;;;;23.10;21.80;;;;;;;;;;5022636;28;20459;-87
2021/05/08 13:17:14;;;;;;;22.53;21.13;;;;;;;;;;5025007;28;20816;-88
2021/05/08 13:19:41;;;;;;;22.43;21.03;;;;;;;;;;5028518;28;20460;-87
2021/05/08 13:22:10;;;;;;;23.50;22.10;;;;;;;;;;5024100;28;20441;-84
2021/05/08 13:24:41;;;;;;;22.60;21.40;;;;;;;;;;5022658;28;20416;-87
2021/05/08 13:27:15;;;;;;;23.07;21.60;;;;;;;;;;5024104;28;20423;-85
2021/05/08 13:29:46;;;;;;;22.73;21.13;;;;;;;;;;5007145;28;20440;-85
2021/05/08 13:32:13;;;;;;;22.97;21.67;;;;;;;;;;5026426;28;20442;-83
2021/05/08 13:34:42;;;;;;;22.90;21.60;;;;;;;;;;5025073;28;20480;-89
2021/05/08 13:37:09;;;;;;;23.10;21.80;;;;;;;;;;5026636;28;20395;-86
2021/05/08 13:39:36;;;;;;;22.70;21.40;;;;;;;;;;5026170;28;20448;-89
2021/05/08 13:42:05;;;;;;;23.07;21.50;;;;;;;;;;5025565;28;20385;-85
2021/05/08 13:44:32;;;;;;;22.90;21.63;;;;;;;;;;5026191;28;20424;-81
2021/05/08 13:46:59;;;;;;;22.27;21.17;;;;;;;;;;5018931;28;20449;-81
2021/05/08 13:49:28;;;;;;;22.57;21.27;;;;;;;;;;5016832;28;20512;-81
2021/05/08 13:51:55;;;;;;;22.27;21.07;;;;;;;;;;5017075;28;20412;-82
2021/05/08 13:54:22;;;;;;;23.20;21.37;;;;;;;;;;5018368;28;20871;-80
2021/05/08 13:56:50;;;;;;;21.60;20.37;;;;;;;;;;5018972;28;20442;-81
2021/05/08 13:59:22;;;;;;;22.27;21.07;;;;;;;;;;5023614;28;20442;-81
2021/05/08 14:01:49;;;;;;;22.57;21.47;;;;;;;;;;5020613;28;20500;-80
2021/05/08 14:04:16;;;;;;;22.63;21.23;;;;;;;;;;5020031;28;20405;-80
2021/05/08 14:06:45;;;;;;;21.87;20.67;;;;;;;;;;5019341;28;20404;-80
2021/05/08 14:09:11;;;;;;;22.37;21.07;;;;;;;;;;5019801;28;20449;-87
2021/05/08 14:11:38;;;;;;;22.60;21.20;;;;;;;;;;5023508;28;20437;-87
2021/05/08 14:14:05;;;;;;;22.27;21.07;;;;;;;;;;5022811;28;20460;-82
2021/05/08 14:16:33;;;;;;;21.97;20.80;;;;;;;;;;5016912;28;20427;-88
2021/05/08 14:19:00;;;;;;;21.80;20.70;;;;;;;;;;5017911;28;20432;-81
2021/05/08 14:21:27;;;;;;;22.30;21.10;;;;;;;;;;5020844;28;20435;-88
2021/05/08 14:23:54;;;;;;;22.37;20.90;;;;;;;;;;5024269;28;20446;-88
2021/05/08 14:26:23;;;;;;;22.17;20.83;;;;;;;;;;5021295;28;20409;-87
2021/05/08 14:28:51;;;;;;;21.77;20.47;;;;;;;;;;5022305;28;20411;-88
2021/05/08 14:31:18;;;;;;;21.87;20.57;;;;;;;;;;5024478;28;20460;-88